createdAt,value
2023-08-17T00:01:55.548Z,83.70
2023-08-17T00:04:23.127Z,83.50
2023-08-17T00:06:50.209Z,82.20
2023-08-17T00:09:17.252Z,82.50
2023-08-17T00:11:44.531Z,82.70
2023-08-17T00:14:13.890Z,84.00
2023-08-17T00:16:41.006Z,84.90
2023-08-17T00:19:08.493Z,85.30
2023-08-17T00:21:35.589Z,85.50
2023-08-17T00:24:02.703Z,85.90
2023-08-17T00:26:29.891Z,85.90
2023-08-17T00:33:14.839Z,85.70
2023-08-17T00:35:41.977Z,86.20
2023-08-17T00:38:09.120Z,86.00
2023-08-17T00:40:36.272Z,86.00
2023-08-17T00:43:03.466Z,86.20
2023-08-17T00:45:30.988Z,86.50
2023-08-17T00:47:59.723Z,86.60
2023-08-17T00:50:28.999Z,87.00
2023-08-17T00:52:57.299Z,87.00
2023-08-17T00:55:25.272Z,86.90
2023-08-17T00:57:54.241Z,86.70
2023-08-17T01:00:23.272Z,86.70
2023-08-17T01:02:50.735Z,86.70
2023-08-17T01:05:18.036Z,86.40
2023-08-17T01:07:45.177Z,86.50
2023-08-17T01:10:12.319Z,86.40
2023-08-17T01:13:04.630Z,86.30
2023-08-17T01:15:41.787Z,86.20
2023-08-17T01:18:27.746Z,86.30
2023-08-17T01:20:55.797Z,86.50
2023-08-17T01:23:23.989Z,86.60
2023-08-17T01:30:18.962Z,87.00
2023-08-17T01:32:59.279Z,87.40
2023-08-17T01:35:39.953Z,87.90
2023-08-17T01:38:15.741Z,88.10
2023-08-17T01:40:46.891Z,88.40
2023-08-17T01:43:14.924Z,88.40
2023-08-17T01:45:44.888Z,89.00
2023-08-17T01:48:12.396Z,89.50
2023-08-17T01:50:39.454Z,90.20
2023-08-17T01:53:06.580Z,90.60
2023-08-17T01:55:33.863Z,90.80
2023-08-17T01:58:00.971Z,90.70
2023-08-17T02:00:28.163Z,91.50
2023-08-17T02:02:55.344Z,92.20
2023-08-17T02:05:22.509Z,92.60
2023-08-17T02:07:49.692Z,93.10
2023-08-17T02:10:16.753Z,93.40
2023-08-17T02:12:43.853Z,93.90
2023-08-17T02:15:11.221Z,94.50
2023-08-17T02:17:38.326Z,95.00
2023-08-17T02:20:06.152Z,95.00
2023-08-17T02:22:33.241Z,94.80
2023-08-17T02:29:26.005Z,95.40
2023-08-17T02:31:53.300Z,95.50
2023-08-17T02:34:20.468Z,95.90
2023-08-17T02:36:47.520Z,96.20
2023-08-17T02:39:14.692Z,96.60
2023-08-17T02:41:41.970Z,96.80
2023-08-17T02:44:09.951Z,97.00
2023-08-17T02:46:37.014Z,97.00
2023-08-17T02:49:04.236Z,96.30
2023-08-17T02:51:31.426Z,96.00
2023-08-17T02:53:58.542Z,96.50
2023-08-17T02:56:26.448Z,96.70
2023-08-17T02:58:53.526Z,96.80
2023-08-17T03:01:20.617Z,96.70
2023-08-17T03:03:49.784Z,96.60
2023-08-17T03:06:16.877Z,96.60
2023-08-17T03:08:44.124Z,96.30
2023-08-17T03:11:12.317Z,96.40
2023-08-17T03:13:39.403Z,96.20
2023-08-17T03:16:06.523Z,96.10
2023-08-17T03:18:33.654Z,96.10
2023-08-17T03:21:00.923Z,95.50
2023-08-17T03:23:28.097Z,95.00
2023-08-17T03:25:55.818Z,95.00
2023-08-17T03:28:23.894Z,95.00
2023-08-17T03:30:51.008Z,95.70
2023-08-17T03:33:18.028Z,95.80
2023-08-17T03:35:45.122Z,95.70
2023-08-17T03:38:12.245Z,95.70
2023-08-17T03:40:39.457Z,95.60
2023-08-17T03:43:06.510Z,95.50
2023-08-17T03:45:34.245Z,96.00
2023-08-17T03:48:01.347Z,96.40
2023-08-17T03:50:29.673Z,96.30
2023-08-17T03:52:56.740Z,95.80
2023-08-17T03:55:23.851Z,95.90
2023-08-17T03:57:51.081Z,95.90
2023-08-17T04:00:18.588Z,96.00
2023-08-17T04:02:45.839Z,95.70
2023-08-17T04:05:18.641Z,95.50
2023-08-17T04:07:46.175Z,95.50
2023-08-17T04:10:13.322Z,95.50
2023-08-17T04:12:40.424Z,95.50
2023-08-17T04:15:08.254Z,95.40
2023-08-17T04:17:35.555Z,95.30
2023-08-17T04:20:04.681Z,95.10
2023-08-17T04:22:31.843Z,95.10
2023-08-17T04:24:59.042Z,95.40
2023-08-17T04:27:26.928Z,95.50
2023-08-17T04:29:54.192Z,95.40
2023-08-17T04:32:22.290Z,95.30
2023-08-17T04:34:49.529Z,95.30
2023-08-17T04:37:16.887Z,95.10
2023-08-17T04:39:44.792Z,94.70
2023-08-17T04:42:18.095Z,94.60
2023-08-17T04:44:45.385Z,94.50
2023-08-17T04:47:12.474Z,94.50
2023-08-17T04:49:39.652Z,94.50
2023-08-17T04:52:06.772Z,94.70
2023-08-17T04:54:35.247Z,94.70
2023-08-17T04:57:02.342Z,94.70
2023-08-17T04:59:29.645Z,94.70
2023-08-17T05:02:22.824Z,95.00
2023-08-17T05:04:50.165Z,95.20
2023-08-17T05:07:17.443Z,95.70
2023-08-17T05:09:44.549Z,95.70
2023-08-17T05:12:11.828Z,95.80
2023-08-17T05:14:38.871Z,96.00
2023-08-17T05:17:06.222Z,96.10
2023-08-17T05:19:34.027Z,96.10
2023-08-17T05:22:01.579Z,96.00
2023-08-17T05:24:28.991Z,95.90
2023-08-17T05:26:56.320Z,95.90
2023-08-17T05:29:23.875Z,95.70
2023-08-17T05:31:51.083Z,95.70
2023-08-17T05:34:18.256Z,95.60
2023-08-17T05:36:45.629Z,95.50
2023-08-17T05:39:13.906Z,95.60
2023-08-17T05:41:41.087Z,95.50
2023-08-17T05:44:08.350Z,95.30
2023-08-17T05:46:35.743Z,95.10
2023-08-17T05:49:13.204Z,95.00
2023-08-17T05:51:40.350Z,94.80
2023-08-17T05:54:08.594Z,94.90
2023-08-17T05:56:35.762Z,94.80
2023-08-17T05:59:03.077Z,94.80
2023-08-17T06:01:30.330Z,94.60
2023-08-17T06:03:57.549Z,94.50
2023-08-17T06:06:24.917Z,94.60
2023-08-17T06:08:52.140Z,94.40
2023-08-17T06:11:19.265Z,94.40
2023-08-17T06:13:53.753Z,94.20
2023-08-17T06:16:20.912Z,94.00
2023-08-17T06:18:48.113Z,94.00
2023-08-17T06:21:15.301Z,93.90
2023-08-17T06:23:42.424Z,93.80
2023-08-17T06:26:09.725Z,93.90
2023-08-17T06:28:36.982Z,93.80
2023-08-17T06:31:04.238Z,93.50
2023-08-17T06:33:31.425Z,93.40
2023-08-17T06:35:58.641Z,93.20
2023-08-17T06:38:25.912Z,93.10
2023-08-17T06:40:53.987Z,93.00
2023-08-17T06:43:21.165Z,93.10
2023-08-17T06:45:48.387Z,93.10
2023-08-17T06:48:15.543Z,93.20
2023-08-17T06:50:42.791Z,93.10
2023-08-17T06:53:09.979Z,93.20
2023-08-17T06:55:37.252Z,93.10
2023-08-17T06:58:04.571Z,92.90
2023-08-17T07:00:31.707Z,93.10
2023-08-17T07:03:01.027Z,93.10
2023-08-17T07:05:28.599Z,92.80
2023-08-17T07:07:56.616Z,92.70
2023-08-17T07:10:23.816Z,92.60
2023-08-17T07:12:50.912Z,92.50
2023-08-17T07:15:18.198Z,92.40
2023-08-17T07:17:45.357Z,92.60
2023-08-17T07:22:42.732Z,92.30
2023-08-17T07:25:10.190Z,92.00
2023-08-17T07:27:40.371Z,91.50
2023-08-17T07:30:08.397Z,91.10
2023-08-17T07:32:39.814Z,91.00
2023-08-17T07:35:10.877Z,90.00
2023-08-17T07:37:41.196Z,89.70
2023-08-17T07:40:11.417Z,89.80
2023-08-17T07:42:39.314Z,89.30
2023-08-17T07:45:08.718Z,88.80
2023-08-17T07:47:39.879Z,88.50
2023-08-17T07:50:10.431Z,88.10
2023-08-17T07:52:40.188Z,88.00
2023-08-17T07:55:07.787Z,87.10
2023-08-17T07:57:39.808Z,87.20
2023-08-17T08:03:13.795Z,86.20
2023-08-17T08:05:43.381Z,85.60
2023-08-17T08:08:10.799Z,85.10
2023-08-17T08:10:38.156Z,84.50
2023-08-17T08:13:17.747Z,83.40
2023-08-17T08:21:40.857Z,82.30
2023-08-17T08:25:10.779Z,82.90
2023-08-17T08:29:01.688Z,81.00
2023-08-17T08:31:28.873Z,79.90
2023-08-17T08:33:56.242Z,79.20
2023-08-17T08:36:23.553Z,79.00
2023-08-17T08:38:50.591Z,79.60
2023-08-17T08:41:18.370Z,78.50
2023-08-17T08:43:46.318Z,79.00
2023-08-17T08:46:16.398Z,78.30
2023-08-17T08:48:44.968Z,77.40
2023-08-17T08:51:17.953Z,75.80
2023-08-17T08:53:48.506Z,75.00
2023-08-17T08:56:20.024Z,73.60
2023-08-17T08:58:54.434Z,72.50
2023-08-17T09:01:23.001Z,73.10
2023-08-17T09:03:52.786Z,72.60
2023-08-17T09:06:22.570Z,72.70
2023-08-17T09:08:50.674Z,71.40
2023-08-17T09:11:18.142Z,70.70
2023-08-17T09:13:45.307Z,71.50
2023-08-17T09:16:12.745Z,70.80
2023-08-17T09:18:40.437Z,70.20
2023-08-17T09:21:07.660Z,69.50
2023-08-17T09:23:37.333Z,68.80
2023-08-17T09:26:10.128Z,68.30
2023-08-17T09:28:40.347Z,68.90
2023-08-17T09:31:07.495Z,69.90
2023-08-17T09:33:35.297Z,68.80
2023-08-17T09:36:02.451Z,68.90
2023-08-17T09:38:29.829Z,66.70
2023-08-17T09:40:59.150Z,67.20
2023-08-17T09:43:30.431Z,65.80
2023-08-17T09:45:58.513Z,66.60
2023-08-17T09:48:26.695Z,63.80
2023-08-17T09:50:56.648Z,64.50
2023-08-17T09:53:23.988Z,62.80
2023-08-17T09:55:51.604Z,63.00
2023-08-17T09:58:18.681Z,64.00
2023-08-17T10:00:51.674Z,64.00
2023-08-17T10:03:20.836Z,62.80
2023-08-17T10:06:02.566Z,61.90
2023-08-17T10:08:31.933Z,62.90
2023-08-17T10:11:00.505Z,63.60
2023-08-17T10:13:43.585Z,61.50
2023-08-17T10:19:00.046Z,57.90
2023-08-17T10:21:38.689Z,58.60
2023-08-17T10:24:07.093Z,60.50
2023-08-17T10:26:34.978Z,60.60
2023-08-17T10:29:12.816Z,60.90
2023-08-17T10:31:46.422Z,59.50
2023-08-17T10:34:14.743Z,57.50
2023-08-17T10:36:43.271Z,57.60
2023-08-17T10:39:28.262Z,57.80
2023-08-17T10:41:58.088Z,57.80
2023-08-17T10:44:44.236Z,58.00
2023-08-17T10:47:24.743Z,58.10
2023-08-17T10:49:56.443Z,56.20
2023-08-17T10:52:31.799Z,57.30
2023-08-17T10:55:02.276Z,54.30
2023-08-17T10:57:37.050Z,54.30
2023-08-17T11:00:23.090Z,54.00
2023-08-17T11:03:06.806Z,54.80
2023-08-17T11:05:51.330Z,55.60
2023-08-17T11:08:22.032Z,54.50
2023-08-17T11:11:00.465Z,54.80
2023-08-17T11:13:35.431Z,55.00
2023-08-17T11:16:05.026Z,53.20
2023-08-17T11:18:33.926Z,52.40
2023-08-17T11:21:53.206Z,53.50
2023-08-17T11:24:20.653Z,53.10
2023-08-17T11:26:53.409Z,51.60
2023-08-17T11:29:20.543Z,51.20
2023-08-17T11:32:19.200Z,51.70
2023-08-17T11:39:14.126Z,50.30
2023-08-17T11:41:44.718Z,51.30
2023-08-17T11:44:13.668Z,51.60
2023-08-17T11:46:40.844Z,52.40
2023-08-17T11:49:08.143Z,51.80
2023-08-17T11:51:35.573Z,51.90
2023-08-17T11:54:05.012Z,52.80
2023-08-17T11:56:32.172Z,50.10
2023-08-17T11:59:00.091Z,51.00
2023-08-17T12:01:27.849Z,51.90
2023-08-17T12:03:54.999Z,50.40
2023-08-17T12:06:22.690Z,50.20
2023-08-17T12:08:50.084Z,51.50
2023-08-17T12:11:20.974Z,50.40
2023-08-17T12:13:54.780Z,50.60
2023-08-17T12:16:23.826Z,51.90
2023-08-17T12:18:52.927Z,50.60
2023-08-17T12:21:27.000Z,53.00
2023-08-17T12:23:54.368Z,53.60
2023-08-17T12:26:22.697Z,51.00
2023-08-17T12:28:50.951Z,50.70
2023-08-17T12:31:24.498Z,52.10
2023-08-17T12:33:52.969Z,51.10
2023-08-17T12:36:21.744Z,51.80
2023-08-17T12:38:49.664Z,52.60
2023-08-17T12:41:17.386Z,50.80
2023-08-17T12:43:44.826Z,52.40
2023-08-17T12:46:14.802Z,49.60
2023-08-17T12:48:42.078Z,51.10
2023-08-17T12:51:09.609Z,52.40
2023-08-17T12:53:36.700Z,52.40
2023-08-17T12:56:05.631Z,52.10
2023-08-17T12:58:32.778Z,54.60
2023-08-17T13:01:00.019Z,53.70
2023-08-17T13:03:27.293Z,53.90
2023-08-17T13:05:55.423Z,54.60
2023-08-17T13:08:22.577Z,54.60
2023-08-17T13:10:49.793Z,52.00
2023-08-17T13:13:16.881Z,54.40
2023-08-17T13:15:43.967Z,55.00
2023-08-17T13:18:11.155Z,52.50
2023-08-17T13:20:39.676Z,53.70
2023-08-17T13:23:07.199Z,55.30
2023-08-17T13:25:34.424Z,55.90
2023-08-17T13:28:01.488Z,54.70
2023-08-17T13:30:28.605Z,56.40
2023-08-17T13:32:56.327Z,57.20
2023-08-17T13:35:23.575Z,57.80
2023-08-17T13:37:58.819Z,57.60
2023-08-17T13:40:26.088Z,57.50
2023-08-17T13:42:53.205Z,54.80
2023-08-17T13:45:20.371Z,57.60
2023-08-17T13:47:47.563Z,55.60
2023-08-17T13:50:14.678Z,55.90
2023-08-17T13:52:41.809Z,57.30
2023-08-17T13:55:10.123Z,57.50
2023-08-17T13:57:37.337Z,58.00
2023-08-17T14:00:05.357Z,56.60
2023-08-17T14:02:33.175Z,58.30
2023-08-17T14:05:00.701Z,58.10
2023-08-17T14:07:28.071Z,58.60
2023-08-17T14:10:06.595Z,58.50
2023-08-17T14:12:36.407Z,59.60
2023-08-17T14:15:03.823Z,60.60
2023-08-17T14:17:30.873Z,61.70
2023-08-17T14:19:57.934Z,62.90
2023-08-17T14:22:25.140Z,63.80
2023-08-17T14:24:52.497Z,63.50
2023-08-17T14:27:19.609Z,65.10
2023-08-17T14:29:47.912Z,66.00
2023-08-17T14:32:15.457Z,66.90
2023-08-17T14:34:42.525Z,67.90
2023-08-17T14:37:09.945Z,68.70
2023-08-17T14:40:34.791Z,69.60
2023-08-17T14:43:01.849Z,70.90
2023-08-17T14:45:28.906Z,72.00
2023-08-17T14:47:59.793Z,72.30
2023-08-17T14:50:28.995Z,72.60
2023-08-17T14:53:03.840Z,73.20
2023-08-17T14:55:31.408Z,73.20
2023-08-17T14:58:03.161Z,73.60
2023-08-17T15:00:33.176Z,73.70
2023-08-17T15:03:01.629Z,74.00
2023-08-17T15:05:29.574Z,74.10
2023-08-17T15:07:56.846Z,74.60
2023-08-17T15:10:24.320Z,74.90
2023-08-17T15:12:51.530Z,74.70
2023-08-17T15:15:21.415Z,74.60
2023-08-17T15:17:48.818Z,74.70
2023-08-17T15:20:15.916Z,74.90
2023-08-17T15:22:42.972Z,74.70
2023-08-17T15:25:10.148Z,75.10
2023-08-17T15:27:37.309Z,75.70
2023-08-17T15:30:04.837Z,75.70
2023-08-17T15:32:31.955Z,75.70
2023-08-17T15:34:59.418Z,75.80
2023-08-17T15:37:27.331Z,75.80
2023-08-17T15:39:54.789Z,76.20
2023-08-17T15:42:21.827Z,76.30
2023-08-17T15:44:49.038Z,76.40
2023-08-17T15:47:16.085Z,76.50
2023-08-17T15:49:43.108Z,76.30
2023-08-17T15:52:12.324Z,76.70
2023-08-17T15:54:39.655Z,76.30
2023-08-17T15:57:06.745Z,76.20
2023-08-17T15:59:34.315Z,76.00
2023-08-17T16:02:01.469Z,76.30
2023-08-17T16:04:28.554Z,76.40
2023-08-17T16:06:55.667Z,76.40
2023-08-17T16:09:23.026Z,76.10
2023-08-17T16:11:50.119Z,76.40
2023-08-17T16:14:17.196Z,76.50
2023-08-17T16:16:44.597Z,76.10
2023-08-17T16:19:11.892Z,76.60
2023-08-17T16:21:39.113Z,76.30
2023-08-17T16:24:06.503Z,76.40
2023-08-17T16:26:35.382Z,76.50
2023-08-17T16:29:04.424Z,76.80
2023-08-17T16:31:35.172Z,77.20
2023-08-17T16:35:16.894Z,77.30
2023-08-17T16:37:47.541Z,77.20
2023-08-17T16:40:24.219Z,77.10
2023-08-17T16:43:01.210Z,77.10
2023-08-17T16:45:28.579Z,77.70
2023-08-17T16:47:55.757Z,77.80
2023-08-17T16:50:23.230Z,78.40
2023-08-17T16:52:51.311Z,78.70
2023-08-17T16:55:18.484Z,76.60
2023-08-17T16:57:46.149Z,75.10
2023-08-17T17:00:13.688Z,74.50
2023-08-17T17:02:40.756Z,73.80
2023-08-17T17:05:08.468Z,73.60
2023-08-17T17:07:36.033Z,72.10
2023-08-17T17:10:03.445Z,71.70
2023-08-17T17:12:30.507Z,71.10
2023-08-17T17:14:59.391Z,71.20
2023-08-17T17:17:26.843Z,71.00
2023-08-17T17:19:54.505Z,70.80
2023-08-17T17:22:48.715Z,71.10
2023-08-17T17:25:15.954Z,72.40
2023-08-17T17:31:29.937Z,73.40
2023-08-17T17:34:08.893Z,74.20
2023-08-17T17:36:54.611Z,74.90
2023-08-17T17:39:22.021Z,75.10
2023-08-17T17:41:50.965Z,74.90
2023-08-17T17:44:18.408Z,74.70
2023-08-17T17:46:45.841Z,74.90
2023-08-17T17:49:13.245Z,75.40
2023-08-17T17:51:40.446Z,75.30
2023-08-17T17:54:07.752Z,75.20
2023-08-17T17:56:42.307Z,75.20
2023-08-17T17:59:11.512Z,75.30
2023-08-17T18:01:39.143Z,75.60
2023-08-17T18:04:31.315Z,75.70
2023-08-17T18:06:58.496Z,76.40
2023-08-17T18:09:25.823Z,76.40
2023-08-17T18:11:54.687Z,76.30
2023-08-17T18:14:21.954Z,76.20
2023-08-17T18:39:04.342Z,77.50
2023-08-17T18:41:31.543Z,77.80
2023-08-17T18:43:58.772Z,77.80
2023-08-17T18:50:44.148Z,78.30
2023-08-17T18:53:11.329Z,78.80
2023-08-17T18:55:46.652Z,78.90
2023-08-17T18:58:13.744Z,79.00
2023-08-17T19:00:40.991Z,79.00
2023-08-17T19:04:06.600Z,79.60
2023-08-17T19:06:33.701Z,80.30
2023-08-17T19:09:01.269Z,80.70
2023-08-17T19:11:28.430Z,80.80
2023-08-17T19:13:55.561Z,81.20
2023-08-17T19:16:22.758Z,81.50
2023-08-17T19:18:49.963Z,81.30
2023-08-17T19:21:17.112Z,81.20
2023-08-17T19:23:44.373Z,81.30
2023-08-17T19:27:22.883Z,81.50
2023-08-17T19:29:52.900Z,81.70
2023-08-17T19:32:20.276Z,82.60
2023-08-17T19:34:56.159Z,83.20
2023-08-17T19:37:23.404Z,83.90
2023-08-17T19:39:50.534Z,84.10
2023-08-17T19:42:17.753Z,84.40
2023-08-17T19:44:45.227Z,84.50
2023-08-17T19:47:18.280Z,84.50
2023-08-17T19:49:45.657Z,84.50
2023-08-17T19:52:12.943Z,84.40
2023-08-17T19:54:43.206Z,84.60
2023-08-17T19:57:10.373Z,84.60
2023-08-17T19:59:37.459Z,84.80
2023-08-17T20:02:04.718Z,84.90
2023-08-17T20:04:31.775Z,84.80
2023-08-17T20:06:58.975Z,84.80
2023-08-17T20:09:26.078Z,84.60
2023-08-17T20:11:53.569Z,84.60
2023-08-17T20:14:23.080Z,84.50
2023-08-17T20:16:50.671Z,84.40
2023-08-17T20:19:18.537Z,84.40
2023-08-17T20:21:45.622Z,84.40
2023-08-17T20:25:15.701Z,84.70
2023-08-17T20:27:43.787Z,85.10
2023-08-17T20:30:11.465Z,85.50
2023-08-17T20:32:38.587Z,85.90
2023-08-17T20:35:06.384Z,86.20
2023-08-17T20:37:33.432Z,86.40
2023-08-17T20:40:00.571Z,86.50
2023-08-17T20:42:27.671Z,86.50
2023-08-17T20:44:54.766Z,86.40
2023-08-17T20:47:23.098Z,86.30
2023-08-17T20:49:54.908Z,86.10
2023-08-17T20:52:22.107Z,85.90
2023-08-17T20:54:53.412Z,86.10
2023-08-17T20:57:20.641Z,86.20
2023-08-17T20:59:50.648Z,86.40
2023-08-17T21:02:17.763Z,86.30
2023-08-17T21:04:44.851Z,86.20
2023-08-17T21:07:12.205Z,86.40
2023-08-17T21:09:40.049Z,86.50
2023-08-17T21:12:07.264Z,86.40
2023-08-17T21:14:34.427Z,86.50
2023-08-17T21:17:01.517Z,86.70
2023-08-17T21:19:28.640Z,86.80
2023-08-17T21:21:56.135Z,86.90
2023-08-17T21:24:23.382Z,87.10
2023-08-17T21:26:51.830Z,87.20
2023-08-17T21:29:27.918Z,87.30
2023-08-17T21:31:55.219Z,87.30
2023-08-17T21:34:22.433Z,87.50
2023-08-17T21:36:49.661Z,87.60
2023-08-17T21:39:48.413Z,87.80
2023-08-17T21:42:15.640Z,88.00
2023-08-17T21:44:42.759Z,88.20
2023-08-17T21:47:09.922Z,88.50
2023-08-17T21:49:37.130Z,88.50
2023-08-17T21:52:04.510Z,88.40
2023-08-17T21:54:31.653Z,88.30
2023-08-17T21:56:58.724Z,88.10
2023-08-17T21:59:25.903Z,88.10
2023-08-17T22:01:53.176Z,87.80
2023-08-17T22:04:20.399Z,87.60
2023-08-17T22:06:47.488Z,87.40
2023-08-17T22:09:14.608Z,87.20
2023-08-17T22:11:41.926Z,87.20
2023-08-17T22:14:09.030Z,87.10
2023-08-17T22:16:36.137Z,87.10
2023-08-17T22:19:03.249Z,87.20
2023-08-17T22:21:30.656Z,87.30
2023-08-17T22:23:57.814Z,87.40
2023-08-17T22:26:24.990Z,87.40
2023-08-17T22:28:52.133Z,87.50
2023-08-17T22:31:19.287Z,87.60
2023-08-17T22:33:46.402Z,87.80
2023-08-17T22:36:13.476Z,88.00
2023-08-17T22:38:41.168Z,88.30
2023-08-17T22:41:08.377Z,88.60
2023-08-17T22:43:35.516Z,88.80
2023-08-17T22:46:04.283Z,89.20
2023-08-17T22:52:56.578Z,89.20
2023-08-17T22:55:24.286Z,89.10
2023-08-17T22:57:51.484Z,89.20
2023-08-17T23:00:20.511Z,89.20
2023-08-17T23:02:47.996Z,89.20
2023-08-17T23:05:15.808Z,89.10
2023-08-17T23:07:42.946Z,89.00
2023-08-17T23:10:10.156Z,88.80
2023-08-17T23:12:37.312Z,88.70
2023-08-17T23:15:04.882Z,88.90
2023-08-17T23:17:31.972Z,88.80
2023-08-17T23:20:01.770Z,88.90
2023-08-17T23:22:28.892Z,88.90
2023-08-17T23:24:56.036Z,88.90
2023-08-17T23:27:23.191Z,88.90
2023-08-17T23:29:50.444Z,88.90
2023-08-17T23:32:26.932Z,89.00
2023-08-17T23:34:55.837Z,89.00
2023-08-17T23:37:22.959Z,89.10
2023-08-17T23:39:50.104Z,89.30
2023-08-17T23:42:17.153Z,89.50
2023-08-17T23:44:44.268Z,89.60
2023-08-17T23:47:11.386Z,89.80
2023-08-17T23:50:07.568Z,90.00
2023-08-17T23:52:34.580Z,90.10
2023-08-17T23:55:01.676Z,90.00
2023-08-17T23:57:29.060Z,90.00
2023-08-17T23:59:57.452Z,89.90
